Hohn Airport


Codes: ETNH/
Name: Hohn Airport
City:
Country: Germany
Elevation: 39 ft.

Photos at Hohn Airport


   Photos courtesy of SpottingLog. You can add your own sightings and photos by signing up for a free trial today.



17-5904, 12-Jun-2023
© Ruben

ZK344, 12-Jun-2023
© Ruben

ZK308, 12-Jun-2023
© Ruben

166781, 12-Jun-2023
© Ruben

83-0010, 12-Jun-2023
© Ruben

85-0110, 12-Jun-2023
© Ruben

85-0101, 12-Jun-2023
© Ruben

82-0009, 12-Jun-2023
© Ruben

82-0017, 12-Jun-2023
© Ruben

166943, 12-Jun-2023
© Ruben

168930, 12-Jun-2023
© Ruben

166867, 12-Jun-2023
© Ruben


Weather at Hohn Airport


Time (UTC)DescriptionTempratureWindCloud coverageVisibilityPressureHumidity
16-Jun-2024 00:00Few Clouds12°C11 mph, S18%10000m1005hPa85%
16-Jun-2024 03:00Light Rain12°C11 mph, S45%10000m1005hPa85%
16-Jun-2024 06:00Light Rain12°C9 mph, S73%10000m1006hPa87%
16-Jun-2024 09:00Light Rain14°C11 mph, S100%10000m1007hPa89%
16-Jun-2024 12:00Light Rain16°C11 mph, SW96%10000m1007hPa83%
16-Jun-2024 15:00Light Rain17°C9 mph, S83%10000m1007hPa78%
16-Jun-2024 18:00Light Rain13°C7 mph, S91%10000m1007hPa93%
16-Jun-2024 21:00Light Rain12°C9 mph, S100%10000m1009hPa96%
17-Jun-2024 00:00Overcast Clouds11°C9 mph, S93%10000m1010hPa98%
17-Jun-2024 03:00Scattered Clouds9°C7 mph, S30%10000m1010hPa98%
17-Jun-2024 06:00Scattered Clouds13°C9 mph, S25%10000m1011hPa93%
17-Jun-2024 09:00Light Rain17°C11 mph, SW48%10000m1011hPa77%
17-Jun-2024 12:00Light Rain18°C11 mph, SW74%10000m1012hPa71%
17-Jun-2024 15:00Light Rain17°C9 mph, SW83%10000m1012hPa72%
17-Jun-2024 18:00Light Rain16°C7 mph, SW49%10000m1012hPa83%
17-Jun-2024 21:00Clear Sky12°C4 mph, SW5%10000m1013hPa94%
18-Jun-2024 00:00Clear Sky11°C4 mph, SW3%10000m1014hPa95%
18-Jun-2024 03:00Broken Clouds11°C7 mph, SW64%10000m1014hPa96%
18-Jun-2024 06:00Broken Clouds15°C9 mph, SW55%10000m1015hPa85%
18-Jun-2024 09:00Light Rain18°C11 mph, SW22%10000m1015hPa71%
18-Jun-2024 12:00Light Rain18°C13 mph, W57%10000m1015hPa71%
18-Jun-2024 15:00Light Rain18°C11 mph, W92%10000m1014hPa67%
18-Jun-2024 18:00Overcast Clouds15°C9 mph, NW95%10000m1014hPa78%
18-Jun-2024 21:00Overcast Clouds11°C7 mph, NW100%10000m1015hPa94%
19-Jun-2024 00:00Broken Clouds10°C7 mph, W84%10000m1015hPa97%
19-Jun-2024 03:00Clear Sky10°C7 mph, W4%10000m1016hPa97%
19-Jun-2024 06:00Few Clouds14°C11 mph, W11%10000m1017hPa83%
19-Jun-2024 09:00Light Rain15°C16 mph, W52%10000m1019hPa71%
19-Jun-2024 12:00Broken Clouds16°C16 mph, W76%10000m1020hPa68%
19-Jun-2024 15:00Overcast Clouds15°C16 mph, W100%10000m1021hPa65%
19-Jun-2024 18:00Overcast Clouds13°C11 mph, W100%10000m1021hPa77%
19-Jun-2024 21:00Broken Clouds9°C7 mph, W51%10000m1021hPa90%
20-Jun-2024 00:00Broken Clouds9°C7 mph, SW69%10000m1021hPa87%
20-Jun-2024 03:00Scattered Clouds9°C7 mph, SW31%10000m1019hPa95%
20-Jun-2024 06:00Few Clouds14°C9 mph, SW18%10000m1018hPa80%
20-Jun-2024 09:00Scattered Clouds18°C7 mph, SW47%10000m1017hPa65%
20-Jun-2024 12:00Scattered Clouds20°C4 mph, SW34%10000m1015hPa56%
20-Jun-2024 15:00Few Clouds21°C4 mph, E17%10000m1012hPa55%
20-Jun-2024 18:00Scattered Clouds19°C4 mph, E32%10000m1011hPa73%
20-Jun-2024 21:00Broken Clouds15°C9 mph, E83%10000m1009hPa84%